createdAt,value
2022-08-01T00:00:59.291Z,26.10
2022-08-01T00:03:32.325Z,26.00
2022-08-01T00:08:38.083Z,26.00
2022-08-01T00:11:10.963Z,25.90
2022-08-01T00:16:17.187Z,25.90
2022-08-01T00:18:51.243Z,25.90
2022-08-01T00:21:24.283Z,26.00
2022-08-01T00:26:30.102Z,26.00
2022-08-01T00:40:24.724Z,25.70
2022-08-01T00:42:57.445Z,25.60
2022-08-01T00:50:36.756Z,25.80
2022-08-01T00:53:09.836Z,25.70
2022-08-01T00:55:51.758Z,25.80
2022-08-01T00:58:25.667Z,25.80
2022-08-01T01:00:58.628Z,25.80
2022-08-01T01:06:59.159Z,25.90
2022-08-01T01:09:36.289Z,25.90
2022-08-01T01:12:38.761Z,25.90
2022-08-01T01:15:28.283Z,25.90
2022-08-01T01:18:23.322Z,25.90
2022-08-01T01:21:57.556Z,25.90
2022-08-01T01:25:01.800Z,26.00
2022-08-01T01:27:57.849Z,26.00
2022-08-01T01:30:32.212Z,25.90
2022-08-01T01:33:08.693Z,25.80
2022-08-01T01:35:48.037Z,25.70
2022-08-01T01:38:24.804Z,25.60
2022-08-01T01:41:25.397Z,25.60
2022-08-01T01:43:59.953Z,25.40
2022-08-01T01:46:33.564Z,25.40
2022-08-01T01:49:11.473Z,25.40
2022-08-01T01:51:53.313Z,25.30
2022-08-01T01:54:40.875Z,25.30
2022-08-01T01:57:16.041Z,25.30
2022-08-01T01:59:51.313Z,25.20
2022-08-01T02:02:24.829Z,25.20
2022-08-01T02:04:59.757Z,25.10
2022-08-01T02:10:07.925Z,25.00
2022-08-01T02:12:46.797Z,25.00
2022-08-01T02:15:21.086Z,24.90
2022-08-01T02:17:56.127Z,24.80
2022-08-01T02:20:32.159Z,24.90
2022-08-01T02:23:14.390Z,24.80
2022-08-01T02:26:09.389Z,24.70
2022-08-01T02:28:56.243Z,24.70
2022-08-01T02:31:33.549Z,24.70
2022-08-01T02:34:08.729Z,24.60
2022-08-01T02:36:41.952Z,24.70
2022-08-01T02:39:17.605Z,24.70
2022-08-01T02:41:54.641Z,24.70
2022-08-01T02:44:32.607Z,24.70
2022-08-01T02:47:06.133Z,24.70
2022-08-01T02:49:46.293Z,24.70
2022-08-01T02:52:21.765Z,24.70
2022-08-01T02:54:57.353Z,24.70
2022-08-01T02:57:51.364Z,24.70
2022-08-01T03:00:26.581Z,24.70
2022-08-01T03:03:02.381Z,24.70
2022-08-01T03:05:37.512Z,24.70
2022-08-01T03:08:14.875Z,24.70
2022-08-01T03:10:49.004Z,22.80
2022-08-01T03:13:23.583Z,24.60
2022-08-01T03:15:58.665Z,24.60
2022-08-01T03:18:33.424Z,24.60
2022-08-01T03:21:08.170Z,24.60
2022-08-01T03:23:43.205Z,24.50
2022-08-01T03:26:16.405Z,24.60
2022-08-01T03:28:50.337Z,24.60
2022-08-01T03:31:24.015Z,24.60
2022-08-01T03:33:57.167Z,24.60
2022-08-01T03:36:31.660Z,24.60
2022-08-01T03:39:06.900Z,24.60
2022-08-01T03:41:43.060Z,24.60
2022-08-01T03:44:19.645Z,24.50
2022-08-01T03:47:00.415Z,24.50
2022-08-01T03:49:36.488Z,24.50
2022-08-01T03:52:16.739Z,24.50
2022-08-01T03:55:18.150Z,24.50
2022-08-01T03:57:52.387Z,24.50
2022-08-01T04:00:51.338Z,24.50
2022-08-01T04:03:49.137Z,24.50
2022-08-01T04:06:47.059Z,24.60
2022-08-01T04:09:21.038Z,24.60
2022-08-01T04:12:19.674Z,24.60
2022-08-01T04:14:57.316Z,24.60
2022-08-01T04:17:55.525Z,24.60
2022-08-01T04:20:28.478Z,24.60
2022-08-01T04:23:02.486Z,24.50
2022-08-01T04:26:10.463Z,24.50
2022-08-01T04:29:15.612Z,24.60
2022-08-01T04:36:14.057Z,24.50
2022-08-01T04:38:56.352Z,24.40
2022-08-01T04:41:57.719Z,24.40
2022-08-01T04:44:39.972Z,24.50
2022-08-01T04:47:38.263Z,24.50
2022-08-01T04:50:16.222Z,24.60
2022-08-01T04:52:52.910Z,24.60
2022-08-01T04:58:20.780Z,24.80
2022-08-01T05:01:44.902Z,24.80
2022-08-01T05:06:54.686Z,24.90
2022-08-01T05:12:07.950Z,24.90
2022-08-01T05:15:11.732Z,24.90
2022-08-01T05:17:52.851Z,25.00
2022-08-01T05:20:27.912Z,25.00
2022-08-01T05:23:41.949Z,25.00
2022-08-01T05:26:48.657Z,25.00
2022-08-01T05:29:47.024Z,25.00
2022-08-01T05:36:33.920Z,25.00
2022-08-01T05:39:32.012Z,25.10
2022-08-01T05:42:15.188Z,25.10
2022-08-01T05:54:33.532Z,25.20
2022-08-01T05:59:40.143Z,25.20
2022-08-01T06:03:37.668Z,25.30
2022-08-01T06:07:26.520Z,25.40
2022-08-01T06:10:24.218Z,25.50
2022-08-01T06:15:33.598Z,25.60
2022-08-01T06:18:32.139Z,25.70
2022-08-01T06:21:30.209Z,25.70
2022-08-01T06:24:09.447Z,26.00
2022-08-01T06:32:26.663Z,27.00
2022-08-01T06:35:10.997Z,27.20
2022-08-01T06:42:36.723Z,27.80
2022-08-01T06:50:47.613Z,28.20
2022-08-01T06:54:51.899Z,28.40
2022-08-01T07:06:45.362Z,29.40
2022-08-01T07:09:44.107Z,29.60
2022-08-01T07:12:18.092Z,29.80
2022-08-01T07:15:18.033Z,29.80
2022-08-01T07:53:01.810Z,31.20
2022-08-01T07:58:07.833Z,31.30
2022-08-01T08:03:15.340Z,31.50
2022-08-01T08:06:08.259Z,31.50
2022-08-01T08:18:19.654Z,31.80
2022-08-01T08:21:17.121Z,31.90
2022-08-01T08:24:25.846Z,32.00
2022-08-01T08:27:25.452Z,32.00
2022-08-01T08:30:09.277Z,32.10
2022-08-01T08:33:13.696Z,32.10
2022-08-01T08:36:06.354Z,32.10
2022-08-01T08:39:05.545Z,32.20
2022-08-01T08:41:57.959Z,32.20
2022-08-01T08:44:56.899Z,32.20
2022-08-01T08:47:43.632Z,32.30
2022-08-01T08:50:42.791Z,32.40
2022-08-01T09:00:13.951Z,32.50
2022-08-01T09:03:15.405Z,32.50
2022-08-01T09:05:48.472Z,32.50
2022-08-01T09:08:21.763Z,32.60
2022-08-01T09:10:54.896Z,32.70
2022-08-01T09:13:27.979Z,32.70
2022-08-01T09:16:00.864Z,32.80
2022-08-01T09:18:41.912Z,32.90
2022-08-01T09:21:15.792Z,32.90
2022-08-01T09:23:54.177Z,33.00
2022-08-01T09:27:22.127Z,33.10
2022-08-01T09:30:07.926Z,33.20
2022-08-01T09:32:58.750Z,33.20
2022-08-01T09:35:36.366Z,33.40
2022-08-01T09:38:22.034Z,33.40
2022-08-01T09:40:58.237Z,33.40
2022-08-01T09:43:33.125Z,33.50
2022-08-01T09:46:13.161Z,33.60
2022-08-01T09:49:00.683Z,33.60
2022-08-01T09:51:59.784Z,33.60
2022-08-01T09:54:35.167Z,33.60
2022-08-01T09:57:18.352Z,33.70
2022-08-01T09:59:59.037Z,33.80
2022-08-01T10:02:37.789Z,33.80
2022-08-01T10:05:21.230Z,33.90
2022-08-01T10:08:00.293Z,34.00
2022-08-01T10:10:33.960Z,34.10
2022-08-01T10:13:11.603Z,34.10
2022-08-01T10:15:49.119Z,34.20
2022-08-01T10:18:25.914Z,34.40
2022-08-01T10:21:01.608Z,34.40
2022-08-01T10:23:40.453Z,34.40
2022-08-01T10:26:15.546Z,34.40
2022-08-01T10:28:50.577Z,34.40
2022-08-01T10:31:30.903Z,34.40
2022-08-01T10:34:04.662Z,34.50
2022-08-01T10:36:41.025Z,34.50
2022-08-01T10:39:14.668Z,34.60
2022-08-01T10:41:53.713Z,34.70
2022-08-01T10:44:28.606Z,34.70
2022-08-01T10:47:50.569Z,34.70
2022-08-01T10:50:33.884Z,34.80
2022-08-01T10:53:23.315Z,34.90
2022-08-01T10:56:09.094Z,35.00
2022-08-01T10:58:45.118Z,35.00
2022-08-01T11:01:31.564Z,35.00
2022-08-01T11:04:16.165Z,35.10
2022-08-01T11:07:07.129Z,35.10
2022-08-01T11:09:51.034Z,35.10
2022-08-01T11:12:41.341Z,35.10
2022-08-01T11:15:29.513Z,35.10
2022-08-01T11:18:27.362Z,35.10
2022-08-01T11:21:58.708Z,35.10
2022-08-01T11:29:21.517Z,35.10
2022-08-01T11:32:15.799Z,35.30
2022-08-01T11:34:57.972Z,35.40
2022-08-01T11:37:32.454Z,35.40
2022-08-01T11:40:25.627Z,35.50
2022-08-01T11:43:31.745Z,35.60
2022-08-01T11:46:05.735Z,35.60
2022-08-01T11:48:39.085Z,35.70
2022-08-01T11:51:23.927Z,35.70
2022-08-01T11:54:00.491Z,35.70
2022-08-01T11:56:35.603Z,35.90
2022-08-01T11:59:15.944Z,35.90
2022-08-01T12:01:49.334Z,36.10
2022-08-01T12:09:29.490Z,36.20
2022-08-01T12:14:36.123Z,36.30
2022-08-01T12:17:10.079Z,36.30
2022-08-01T12:19:44.294Z,38.80
2022-08-01T12:22:17.957Z,36.40
2022-08-01T12:24:51.245Z,36.50
2022-08-01T12:27:32.161Z,36.70
2022-08-01T12:30:11.546Z,36.60
2022-08-01T12:32:48.671Z,36.80
2022-08-01T12:35:25.882Z,36.80
2022-08-01T12:38:09.160Z,36.80
2022-08-01T12:40:45.838Z,36.90
2022-08-01T12:43:27.444Z,37.00
2022-08-01T12:46:03.465Z,37.00
2022-08-01T12:51:11.410Z,36.90
2022-08-01T12:53:45.893Z,36.90
2022-08-01T12:56:19.107Z,36.90
2022-08-01T12:58:52.402Z,36.90
2022-08-01T13:01:28.736Z,36.90
2022-08-01T13:04:08.487Z,36.90
2022-08-01T13:06:43.421Z,36.90
2022-08-01T13:09:17.591Z,36.90
2022-08-01T13:11:58.955Z,37.00
2022-08-01T13:14:37.158Z,36.90
2022-08-01T13:17:37.756Z,36.90
2022-08-01T13:20:10.790Z,36.90
2022-08-01T13:22:43.670Z,37.10
2022-08-01T13:25:22.288Z,37.00
2022-08-01T13:28:15.729Z,37.00
2022-08-01T13:30:54.598Z,37.00
2022-08-01T13:33:30.275Z,37.10
2022-08-01T13:36:03.839Z,37.00
2022-08-01T13:41:29.097Z,37.00
2022-08-01T13:44:01.994Z,37.10
2022-08-01T13:46:35.029Z,37.00
2022-08-01T13:49:15.139Z,37.10
2022-08-01T13:51:51.421Z,37.30
2022-08-01T13:54:25.071Z,37.30
2022-08-01T13:56:58.155Z,37.30
2022-08-01T14:02:04.814Z,37.20
2022-08-01T14:04:38.365Z,37.30
2022-08-01T14:07:15.048Z,37.30
2022-08-01T14:10:05.112Z,37.40
2022-08-01T14:12:41.512Z,37.30
2022-08-01T14:15:36.769Z,37.40
2022-08-01T14:18:12.400Z,37.30
2022-08-01T14:20:45.431Z,37.30
2022-08-01T14:23:18.940Z,37.30
2022-08-01T14:26:02.596Z,37.30
2022-08-01T14:28:40.050Z,37.40
2022-08-01T14:31:12.996Z,37.40
2022-08-01T14:33:45.970Z,37.40
2022-08-01T14:36:31.053Z,37.30
2022-08-01T14:39:04.631Z,37.30
2022-08-01T14:41:37.435Z,37.30
2022-08-01T14:44:10.452Z,37.40
2022-08-01T14:49:32.056Z,37.40
2022-08-01T14:54:38.932Z,37.30
2022-08-01T14:57:11.811Z,37.30
2022-08-01T14:59:44.465Z,37.20
2022-08-01T15:02:18.921Z,37.10
2022-08-01T15:04:52.483Z,37.10
2022-08-01T15:07:25.460Z,37.10
2022-08-01T15:09:58.375Z,37.10
2022-08-01T15:12:49.293Z,37.20
2022-08-01T15:15:23.221Z,37.30
2022-08-01T15:17:56.954Z,37.30
2022-08-01T15:20:31.551Z,37.30
2022-08-01T15:23:05.303Z,37.20
2022-08-01T15:25:42.678Z,37.20
2022-08-01T15:30:52.952Z,37.10
2022-08-01T15:33:27.224Z,37.20
2022-08-01T15:36:00.025Z,36.80
2022-08-01T15:38:32.903Z,36.80
2022-08-01T15:41:05.837Z,36.80
2022-08-01T15:46:27.216Z,36.90
2022-08-01T15:49:05.856Z,36.90
2022-08-01T15:51:38.630Z,36.90
2022-08-01T15:54:14.791Z,36.80
2022-08-01T15:56:48.275Z,36.80
2022-08-01T15:59:21.284Z,36.70
2022-08-01T16:01:56.013Z,36.70
2022-08-01T16:04:33.277Z,36.60
2022-08-01T16:07:11.771Z,36.60
2022-08-01T16:09:54.412Z,36.60
2022-08-01T16:15:10.561Z,36.60
2022-08-01T16:17:45.291Z,36.60
2022-08-01T16:20:19.381Z,36.60
2022-08-01T16:22:55.505Z,36.60
2022-08-01T16:25:29.125Z,36.50
2022-08-01T16:28:02.422Z,37.10
2022-08-01T16:30:35.452Z,36.40
2022-08-01T16:33:16.439Z,36.40
2022-08-01T16:36:05.303Z,36.40
2022-08-01T16:38:38.078Z,36.40
2022-08-01T16:41:19.865Z,36.40
2022-08-01T16:43:54.564Z,36.40
2022-08-01T16:46:28.017Z,36.30
2022-08-01T16:49:01.095Z,36.20
2022-08-01T16:51:37.356Z,36.20
2022-08-01T16:54:24.863Z,36.00
2022-08-01T16:57:08.032Z,36.00
2022-08-01T16:59:42.255Z,36.00
2022-08-01T17:02:15.504Z,35.90
2022-08-01T17:04:48.529Z,35.90
2022-08-01T17:07:21.370Z,35.70
2022-08-01T17:09:54.549Z,35.70
2022-08-01T17:12:30.550Z,35.60
2022-08-01T17:15:04.293Z,35.50
2022-08-01T17:17:37.208Z,35.50
2022-08-01T17:20:10.888Z,35.50
2022-08-01T17:22:43.863Z,35.40
2022-08-01T17:25:18.242Z,35.30
2022-08-01T17:27:54.453Z,35.30
2022-08-01T17:30:27.382Z,35.30
2022-08-01T17:33:00.503Z,35.20
2022-08-01T17:35:33.445Z,35.10
2022-08-01T17:38:06.412Z,35.10
2022-08-01T17:40:40.733Z,35.00
2022-08-01T17:43:14.179Z,34.90
2022-08-01T17:45:47.606Z,34.90
2022-08-01T17:48:25.221Z,34.80
2022-08-01T17:50:58.720Z,34.70
2022-08-01T17:53:31.776Z,34.60
2022-08-01T17:56:08.800Z,34.60
2022-08-01T17:58:51.722Z,34.50
2022-08-01T18:01:27.628Z,34.50
2022-08-01T18:04:03.014Z,34.40
2022-08-01T18:06:38.912Z,34.30
2022-08-01T18:09:33.363Z,34.30
2022-08-01T18:12:07.154Z,34.70
2022-08-01T18:14:44.162Z,34.00
2022-08-01T18:19:50.319Z,33.90
2022-08-01T18:22:33.219Z,33.80
2022-08-01T18:25:08.535Z,33.70
2022-08-01T18:28:23.216Z,33.60
2022-08-01T18:30:35.114Z,33.50
2022-08-01T18:33:08.165Z,33.40
2022-08-01T18:35:52.168Z,33.40
2022-08-01T18:38:26.956Z,33.20
2022-08-01T18:41:01.230Z,33.10
2022-08-01T18:43:34.607Z,33.00
2022-08-01T18:46:07.962Z,32.90
2022-08-01T18:48:41.784Z,32.70
2022-08-01T18:51:14.691Z,32.70
2022-08-01T18:53:48.030Z,32.50
2022-08-01T18:56:21.303Z,32.40
2022-08-01T18:58:56.567Z,32.30
2022-08-01T19:01:30.152Z,32.20
2022-08-01T19:04:04.215Z,32.20
2022-08-01T19:06:39.004Z,32.10
2022-08-01T19:09:14.028Z,32.10
2022-08-01T19:11:54.495Z,32.00
2022-08-01T19:14:29.284Z,32.00
2022-08-01T19:17:02.825Z,32.00
2022-08-01T19:19:37.467Z,32.00
2022-08-01T19:22:12.600Z,32.00
2022-08-01T19:24:47.708Z,32.00
2022-08-01T19:27:28.012Z,32.00
2022-08-01T19:30:03.531Z,32.00
2022-08-01T19:33:39.321Z,32.00
2022-08-01T19:36:58.483Z,31.90
2022-08-01T19:39:58.151Z,31.90
2022-08-01T19:42:32.109Z,31.90
2022-08-01T19:46:00.353Z,31.70
2022-08-01T19:53:02.746Z,31.70
2022-08-01T19:56:57.137Z,31.60
2022-08-01T20:02:51.243Z,31.50
2022-08-01T20:06:28.572Z,31.40
2022-08-01T20:13:36.956Z,31.30
2022-08-01T20:17:50.043Z,31.30
2022-08-01T20:20:24.551Z,31.20
2022-08-01T20:23:26.203Z,31.10
2022-08-01T20:26:01.484Z,31.00
2022-08-01T20:35:56.511Z,30.80
2022-08-01T20:39:16.214Z,30.70
2022-08-01T20:41:59.624Z,30.70
2022-08-01T20:45:30.592Z,30.60
2022-08-01T20:48:16.228Z,30.50
2022-08-01T20:51:17.090Z,30.40
2022-08-01T20:53:53.491Z,30.30
2022-08-01T20:56:37.603Z,30.30
2022-08-01T20:59:39.756Z,30.30
2022-08-01T21:02:31.832Z,30.30
2022-08-01T21:05:13.853Z,30.20
2022-08-01T21:07:53.771Z,30.20
2022-08-01T21:10:30.483Z,30.20
2022-08-01T21:13:12.185Z,30.20
2022-08-01T21:16:24.538Z,30.20
2022-08-01T21:19:19.577Z,30.20
2022-08-01T21:22:27.148Z,30.10
2022-08-01T21:25:11.697Z,30.00
2022-08-01T21:27:47.534Z,30.00
2022-08-01T21:30:21.113Z,30.00
2022-08-01T21:32:57.224Z,29.90
2022-08-01T21:35:33.122Z,29.90
2022-08-01T21:38:07.508Z,29.90
2022-08-01T21:40:45.734Z,29.90
2022-08-01T21:43:22.537Z,29.80
2022-08-01T21:45:57.300Z,29.70
2022-08-01T21:48:32.612Z,29.70
2022-08-01T21:51:29.108Z,29.60
2022-08-01T21:54:21.497Z,29.60
2022-08-01T21:57:32.402Z,29.60
2022-08-01T22:00:26.108Z,29.60
2022-08-01T22:03:26.783Z,29.60
2022-08-01T22:06:10.576Z,29.60
2022-08-01T22:08:55.937Z,29.70
2022-08-01T22:11:30.936Z,29.60
2022-08-01T22:14:06.910Z,29.60
2022-08-01T22:16:41.431Z,29.60
2022-08-01T22:19:37.822Z,29.50
2022-08-01T22:23:08.272Z,29.40
2022-08-01T22:25:44.471Z,29.20
2022-08-01T22:28:19.048Z,29.20
2022-08-01T22:30:55.407Z,29.20
2022-08-01T22:34:29.514Z,29.20
2022-08-01T22:37:13.499Z,29.20
2022-08-01T22:39:48.021Z,29.20
2022-08-01T22:42:28.307Z,29.20
2022-08-01T22:45:23.329Z,29.20
2022-08-01T22:48:05.498Z,29.20
2022-08-01T22:50:47.312Z,29.20
2022-08-01T22:53:52.483Z,29.20
2022-08-01T22:56:26.026Z,29.20
2022-08-01T22:59:02.798Z,30.70
2022-08-01T23:01:38.839Z,29.20
2022-08-01T23:04:21.551Z,29.20
2022-08-01T23:07:07.627Z,29.20
2022-08-01T23:09:54.180Z,29.30
2022-08-01T23:12:30.382Z,29.20
2022-08-01T23:15:03.075Z,29.20
2022-08-01T23:17:36.702Z,29.20
2022-08-01T23:20:10.743Z,29.20
2022-08-01T23:22:45.328Z,29.30
2022-08-01T23:25:18.617Z,29.20
2022-08-01T23:28:05.541Z,29.20
2022-08-01T23:30:40.406Z,29.30
2022-08-01T23:33:15.133Z,29.20
2022-08-01T23:35:48.039Z,29.20
2022-08-01T23:38:21.317Z,29.30
2022-08-01T23:40:54.187Z,29.20
2022-08-01T23:43:27.130Z,29.20
2022-08-01T23:46:04.532Z,29.20
2022-08-01T23:48:39.124Z,29.20
2022-08-01T23:51:23.954Z,29.10
2022-08-01T23:53:57.876Z,29.10
2022-08-01T23:56:30.642Z,29.10
2022-08-01T23:59:04.938Z,29.20
